Saint Paul, MN

11:29 AM CDT on May 05, 2015 (GMT -0500)
South Saint Paul Municipal-Fleming | | Change Station
CLOSE
Current Station
Airport
Location: South St. Paul,
Elevation: 820 ft
Nearby Weather Stations

Elev 820 ft 44.86 °N, 93.03 °W | Updated 15 minutes ago

Clear
Clear
66 °F
Feels Like 66 °F
N
14
Wind Variable Wind from SSE
Gusts 18 mph

Today
High -- | Low -- °F
--% Chance of Precip.
Yesterday
High -- | Low -- °F
Precip. -- in
5:56 AM 8:22 PM
Full, 98% visible
Pressure 30.20 in
Visibility 7.0 miles
Clouds Clear
Dew Point 42 °F
Humidity 42%
Rainfall 0.00 in
Snow Depth Not available.
UV 8 out of 12
Pollen 8.50 out of 12
Air Quality Not available.
Flu Activity Sporadic
METAR KSGS 051614Z AUTO 15012G16KT 7SM CLR 19/06 A3020 RMK AO2 T01900057

More Conditions Fewer Conditions

Pressure 30.20 in
Visibility 7.0 miles
Clouds Clear
Dew Point 42 °F
Humidity 42%
Rainfall 0.00 in
Snow Depth Not available.
UV 8 out of 12
Pollen 8.50 out of 12
Air Quality Not available.
Flu Activity Sporadic
METAR KSGS 051614Z AUTO 15012G16KT 7SM CLR 19/06 A3020 RMK AO2 T01900057

More Conditions Fewer Conditions

10-Day Weather Forecast

Almanac

Astronomy

May. 05, 2015 Rise Set
Actual Time
Civil Twilight
Nautical Twilight
Astronomical Twilight
Moon
Length of Visible Light
Length of Day
Tomorrow will be .
, % of the Moon is Illuminated

Today's Extremes

State Highs State Lows

Community

WunderPhotos

Upload Photos

1,818,936 photos uploaded!

WunderBlogs® & News

Nearby

Air Quality

  Air Quality AQ Index Pollutant
Not available.

Snow Depth

Station Depth Elevation

Earthquake Activity

City Distance Mag. Time & Date
Minimum magnitude displayed is 2.5.

Coastal Water Temperatures

Place Temperature

Stations

Nearby Weather Stations

Station Location Temp. Windchill Dew Point Humidity Wind Precip. Elev Updated Type